createdAt,value
2023-01-07T00:01:41.608Z,7.51
2023-01-07T00:04:08.372Z,7.57
2023-01-07T00:06:35.215Z,7.57
2023-01-07T00:09:01.957Z,7.40
2023-01-07T00:11:28.685Z,7.66
2023-01-07T00:13:55.537Z,7.61
2023-01-07T00:16:22.352Z,7.59
2023-01-07T00:18:49.145Z,7.54
2023-01-07T00:21:15.766Z,7.74
2023-01-07T00:23:42.406Z,7.81
2023-01-07T00:26:09.064Z,7.75
2023-01-07T00:28:35.780Z,7.97
2023-01-07T00:31:02.475Z,7.93
2023-01-07T00:33:29.191Z,7.91
2023-01-07T00:35:55.886Z,7.71
2023-01-07T00:38:22.522Z,7.74
2023-01-07T00:40:49.202Z,7.91
2023-01-07T00:43:15.882Z,7.85
2023-01-07T00:45:42.557Z,7.81
2023-01-07T00:48:09.192Z,7.62
2023-01-07T00:50:35.899Z,7.57
2023-01-07T00:53:02.594Z,7.70
2023-01-07T00:55:29.264Z,7.69
2023-01-07T00:57:56.799Z,7.76
2023-01-07T01:00:23.709Z,7.87
2023-01-07T01:02:50.545Z,7.31
2023-01-07T01:05:17.279Z,7.22
2023-01-07T01:07:43.936Z,7.48
2023-01-07T01:10:10.585Z,7.67
2023-01-07T01:12:37.304Z,7.60
2023-01-07T01:15:04.006Z,7.58
2023-01-07T01:17:30.789Z,7.60
2023-01-07T01:19:57.461Z,7.81
2023-01-07T01:22:24.297Z,7.67
2023-01-07T01:24:50.952Z,7.42
2023-01-07T01:27:17.588Z,7.33
2023-01-07T01:29:44.303Z,7.33
2023-01-07T01:32:10.979Z,7.43
2023-01-07T01:34:37.671Z,7.45
2023-01-07T01:37:04.309Z,7.17
2023-01-07T01:39:30.991Z,7.24
2023-01-07T01:41:57.610Z,7.13
2023-01-07T01:44:24.287Z,7.24
2023-01-07T01:46:50.998Z,7.25
2023-01-07T01:49:17.682Z,7.27
2023-01-07T01:51:44.382Z,7.29
2023-01-07T01:54:11.067Z,7.57
2023-01-07T01:56:37.709Z,7.63
2023-01-07T01:59:04.342Z,7.49
2023-01-07T02:01:31.274Z,7.44
2023-01-07T02:03:58.069Z,7.37
2023-01-07T02:06:24.764Z,7.26
2023-01-07T02:08:51.492Z,7.36
2023-01-07T02:11:18.176Z,7.47
2023-01-07T02:13:44.962Z,7.36
2023-01-07T02:16:11.745Z,7.28
2023-01-07T02:18:38.499Z,7.44
2023-01-07T02:21:05.421Z,7.42
2023-01-07T02:23:32.106Z,7.29
2023-01-07T02:25:58.973Z,7.37
2023-01-07T02:28:25.883Z,7.40
2023-01-07T02:30:52.590Z,7.45
2023-01-07T02:33:19.314Z,7.36
2023-01-07T02:35:45.953Z,7.36
2023-01-07T02:38:12.615Z,7.42
2023-01-07T02:40:39.232Z,7.36
2023-01-07T02:43:05.932Z,7.46
2023-01-07T02:45:32.625Z,7.56
2023-01-07T02:47:59.357Z,7.52
2023-01-07T02:50:26.065Z,7.20
2023-01-07T02:52:52.957Z,7.34
2023-01-07T02:55:19.712Z,7.21
2023-01-07T02:57:46.509Z,7.05
2023-01-07T03:00:13.179Z,7.36
2023-01-07T03:02:39.856Z,7.26
2023-01-07T03:05:06.565Z,7.31
2023-01-07T03:07:33.242Z,7.43
2023-01-07T03:09:59.911Z,7.34
2023-01-07T03:12:26.627Z,7.18
2023-01-07T03:14:53.287Z,6.93
2023-01-07T03:17:19.947Z,7.26
2023-01-07T03:19:46.561Z,7.43
2023-01-07T03:22:13.223Z,7.42
2023-01-07T03:24:39.846Z,7.26
2023-01-07T03:27:06.493Z,7.28
2023-01-07T03:29:33.423Z,7.36
2023-01-07T03:32:00.109Z,7.25
2023-01-07T03:34:26.816Z,7.26
2023-01-07T03:36:53.475Z,7.29
2023-01-07T03:39:20.242Z,7.24
2023-01-07T03:41:46.939Z,7.29
2023-01-07T03:44:13.615Z,7.29
2023-01-07T03:46:40.255Z,7.24
2023-01-07T03:49:07.589Z,6.82
2023-01-07T03:51:34.285Z,7.03
2023-01-07T03:54:00.960Z,6.88
2023-01-07T03:56:27.614Z,7.13
2023-01-07T03:58:54.317Z,7.06
2023-01-07T04:01:21.143Z,6.95
2023-01-07T04:03:47.979Z,6.80
2023-01-07T04:06:14.640Z,6.79
2023-01-07T04:08:41.338Z,6.98
2023-01-07T04:11:08.028Z,6.95
2023-01-07T04:13:34.901Z,6.91
2023-01-07T04:16:01.575Z,7.07
2023-01-07T04:18:28.237Z,7.01
2023-01-07T04:20:54.896Z,7.00
2023-01-07T04:23:21.575Z,6.69
2023-01-07T04:25:48.230Z,6.69
2023-01-07T04:28:14.883Z,6.98
2023-01-07T04:30:41.663Z,6.70
2023-01-07T04:33:08.524Z,6.72
2023-01-07T04:35:35.240Z,6.90
2023-01-07T04:38:02.145Z,6.89
2023-01-07T04:40:28.819Z,6.88
2023-01-07T04:42:55.492Z,6.60
2023-01-07T04:45:22.112Z,6.56
2023-01-07T04:47:48.764Z,6.75
2023-01-07T04:50:15.450Z,6.65
2023-01-07T04:52:42.356Z,6.56
2023-01-07T04:55:09.084Z,6.38
2023-01-07T04:57:35.758Z,6.62
2023-01-07T05:00:02.493Z,6.67
2023-01-07T05:02:29.182Z,6.72
2023-01-07T05:04:55.843Z,6.65
2023-01-07T05:07:22.489Z,6.82
2023-01-07T05:09:49.124Z,6.61
2023-01-07T05:12:15.818Z,6.65
2023-01-07T05:14:42.507Z,6.72
2023-01-07T05:17:09.297Z,6.61
2023-01-07T05:19:35.948Z,6.72
2023-01-07T05:22:02.604Z,6.80
2023-01-07T05:24:29.233Z,6.76
2023-01-07T05:26:55.867Z,6.88
2023-01-07T05:29:22.593Z,6.83
2023-01-07T05:31:49.275Z,6.69
2023-01-07T05:34:15.916Z,6.72
2023-01-07T05:36:42.573Z,6.75
2023-01-07T05:39:09.239Z,6.86
2023-01-07T05:41:36.148Z,6.59
2023-01-07T05:44:02.782Z,6.38
2023-01-07T05:46:29.620Z,6.34
2023-01-07T05:48:56.289Z,6.55
2023-01-07T05:51:22.933Z,6.56
2023-01-07T05:53:49.577Z,6.62
2023-01-07T05:56:16.252Z,6.52
2023-01-07T05:58:42.905Z,6.19
2023-01-07T06:01:09.671Z,6.47
2023-01-07T06:03:36.449Z,6.69
2023-01-07T06:06:03.172Z,6.57
2023-01-07T06:08:29.858Z,6.62
2023-01-07T06:10:56.524Z,6.70
2023-01-07T06:13:23.261Z,6.63
2023-01-07T06:15:50.059Z,6.53
2023-01-07T06:18:16.771Z,6.69
2023-01-07T06:20:43.540Z,6.61
2023-01-07T06:23:10.239Z,6.66
2023-01-07T06:25:36.882Z,6.70
2023-01-07T06:28:03.589Z,6.65
2023-01-07T06:30:30.243Z,6.63
2023-01-07T06:32:56.955Z,6.62
2023-01-07T06:35:23.606Z,6.56
2023-01-07T06:37:50.272Z,6.54
2023-01-07T06:40:17.016Z,6.55
2023-01-07T06:42:43.953Z,6.57
2023-01-07T06:45:10.863Z,6.53
2023-01-07T06:47:37.606Z,6.45
2023-01-07T06:50:04.291Z,6.71
2023-01-07T06:52:30.990Z,6.64
2023-01-07T06:54:57.638Z,6.71
2023-01-07T06:57:24.489Z,6.84
2023-01-07T06:59:51.184Z,6.70
2023-01-07T07:02:17.921Z,6.60
2023-01-07T07:04:44.824Z,6.70
2023-01-07T07:07:11.488Z,6.72
2023-01-07T07:09:38.195Z,6.83
2023-01-07T07:12:04.897Z,6.94
2023-01-07T07:14:31.561Z,6.85
2023-01-07T07:16:58.355Z,6.75
2023-01-07T07:19:25.039Z,6.93
2023-01-07T07:21:51.681Z,6.90
2023-01-07T07:24:18.667Z,6.99
2023-01-07T07:26:45.634Z,7.16
2023-01-07T07:29:12.371Z,7.24
2023-01-07T07:31:39.151Z,7.24
2023-01-07T07:34:05.820Z,7.42
2023-01-07T07:36:32.576Z,7.57
2023-01-07T07:38:59.244Z,7.59
2023-01-07T07:41:25.933Z,7.72
2023-01-07T07:43:52.605Z,7.97
2023-01-07T07:46:19.356Z,7.92
2023-01-07T07:48:46.097Z,7.74
2023-01-07T07:51:12.765Z,8.00
2023-01-07T07:53:39.524Z,7.63
2023-01-07T07:56:06.252Z,7.78
2023-01-07T07:58:32.888Z,8.09
2023-01-07T08:00:59.545Z,8.26
2023-01-07T08:03:26.526Z,8.33
2023-01-07T08:05:53.231Z,8.37
2023-01-07T08:08:19.948Z,8.55
2023-01-07T08:10:46.594Z,8.73
2023-01-07T08:13:13.288Z,8.99
2023-01-07T08:15:40.189Z,9.16
2023-01-07T08:18:06.832Z,9.41
2023-01-07T08:20:33.781Z,9.46
2023-01-07T08:23:00.414Z,9.59
2023-01-07T08:25:27.090Z,9.69
2023-01-07T08:27:53.889Z,9.92
2023-01-07T08:30:20.602Z,9.88
2023-01-07T08:32:47.255Z,9.68
2023-01-07T08:35:14.088Z,9.80
2023-01-07T08:37:40.787Z,10.01
2023-01-07T08:40:07.516Z,10.18
2023-01-07T08:42:34.135Z,10.30
2023-01-07T08:45:00.883Z,10.09
2023-01-07T08:47:27.548Z,10.31
2023-01-07T08:49:54.252Z,10.58
2023-01-07T08:52:21.126Z,10.57
2023-01-07T08:54:48.250Z,10.58
2023-01-07T08:57:14.973Z,10.57
2023-01-07T08:59:41.635Z,10.73
2023-01-07T09:02:08.554Z,10.75
2023-01-07T09:04:35.257Z,10.93
2023-01-07T09:07:02.158Z,10.72
2023-01-07T09:09:28.809Z,10.73
2023-01-07T09:11:55.443Z,11.01
2023-01-07T09:14:22.060Z,11.23
2023-01-07T09:19:32.859Z,11.65
2023-01-07T09:21:59.548Z,11.67
2023-01-07T09:24:26.210Z,11.64
2023-01-07T09:26:52.872Z,11.70
2023-01-07T09:29:19.578Z,12.03
2023-01-07T09:31:46.283Z,12.28
2023-01-07T09:34:13.022Z,12.33
2023-01-07T09:36:39.695Z,12.40
2023-01-07T09:39:06.338Z,12.41
2023-01-07T09:41:32.998Z,12.20
2023-01-07T09:44:01.823Z,12.42
2023-01-07T09:46:28.962Z,12.78
2023-01-07T09:48:55.751Z,12.64
2023-01-07T09:51:22.429Z,12.59
2023-01-07T09:53:49.086Z,12.62
2023-01-07T09:56:15.765Z,12.32
2023-01-07T09:58:42.457Z,12.49
2023-01-07T10:01:09.280Z,12.40
2023-01-07T10:03:36.052Z,12.48
2023-01-07T10:06:03.000Z,12.46
2023-01-07T10:08:32.149Z,12.42
2023-01-07T10:10:59.097Z,12.20
2023-01-07T10:13:25.783Z,12.39
2023-01-07T10:15:52.448Z,12.45
2023-01-07T10:18:19.106Z,12.68
2023-01-07T10:20:45.803Z,12.90
2023-01-07T10:23:12.520Z,12.97
2023-01-07T10:25:39.449Z,13.15
2023-01-07T10:28:06.115Z,13.12
2023-01-07T10:30:32.737Z,13.08
2023-01-07T10:32:59.421Z,13.16
2023-01-07T10:35:26.115Z,13.24
2023-01-07T10:37:52.811Z,13.39
2023-01-07T10:40:19.774Z,13.52
2023-01-07T10:42:46.501Z,13.68
2023-01-07T10:45:13.252Z,13.77
2023-01-07T10:47:40.076Z,13.97
2023-01-07T10:50:06.787Z,13.63
2023-01-07T10:52:33.453Z,13.54
2023-01-07T10:55:00.244Z,13.92
2023-01-07T10:57:26.874Z,13.96
2023-01-07T10:59:53.573Z,14.09
2023-01-07T11:02:20.540Z,14.17
2023-01-07T11:04:47.545Z,14.09
2023-01-07T11:07:14.295Z,14.12
2023-01-07T11:09:40.993Z,14.13
2023-01-07T11:12:07.679Z,14.35
2023-01-07T11:14:34.423Z,14.51
2023-01-07T11:17:01.050Z,14.64
2023-01-07T11:19:27.947Z,14.77
2023-01-07T11:21:54.747Z,14.22
2023-01-07T11:24:21.597Z,14.39
2023-01-07T11:26:48.258Z,14.73
2023-01-07T11:29:14.955Z,14.88
2023-01-07T11:31:41.690Z,14.98
2023-01-07T11:34:08.466Z,15.11
2023-01-07T11:36:35.175Z,15.16
2023-01-07T11:39:01.817Z,15.14
2023-01-07T11:41:28.558Z,14.91
2023-01-07T11:43:55.251Z,15.08
2023-01-07T11:46:23.893Z,15.23
2023-01-07T11:48:51.866Z,15.49
2023-01-07T11:51:18.506Z,15.52
2023-01-07T11:53:45.229Z,15.51
2023-01-07T11:56:11.926Z,15.60
2023-01-07T11:58:38.890Z,15.58
2023-01-07T12:01:05.722Z,15.37
2023-01-07T12:03:32.524Z,15.15
2023-01-07T12:05:59.220Z,15.31
2023-01-07T12:08:25.872Z,15.51
2023-01-07T12:10:52.564Z,15.39
2023-01-07T12:13:19.327Z,15.41
2023-01-07T12:15:46.072Z,15.48
2023-01-07T12:18:12.756Z,15.61
2023-01-07T12:20:39.428Z,15.70
2023-01-07T12:23:06.325Z,15.69
2023-01-07T12:25:33.763Z,15.84
2023-01-07T12:28:01.131Z,15.98
2023-01-07T12:30:27.809Z,16.12
2023-01-07T12:32:54.490Z,16.18
2023-01-07T12:35:21.221Z,16.18
2023-01-07T12:37:47.866Z,16.01
2023-01-07T12:40:14.595Z,16.00
2023-01-07T12:42:41.524Z,16.10
2023-01-07T12:45:08.354Z,16.23
2023-01-07T12:47:35.354Z,16.33
2023-01-07T12:50:02.120Z,16.40
2023-01-07T12:52:28.742Z,16.40
2023-01-07T12:54:55.415Z,16.44
2023-01-07T12:57:22.104Z,16.56
2023-01-07T12:59:48.759Z,16.72
2023-01-07T13:02:15.560Z,16.60
2023-01-07T13:04:42.469Z,16.71
2023-01-07T13:07:09.204Z,16.84
2023-01-07T13:09:35.911Z,17.05
2023-01-07T13:12:02.598Z,16.94
2023-01-07T13:14:29.255Z,16.51
2023-01-07T13:16:55.905Z,16.37
2023-01-07T13:19:22.599Z,16.48
2023-01-07T13:21:49.285Z,16.47
2023-01-07T13:24:19.177Z,16.53
2023-01-07T13:26:46.013Z,16.58
2023-01-07T13:29:12.729Z,16.80
2023-01-07T13:31:41.892Z,16.82
2023-01-07T13:34:09.500Z,16.85
2023-01-07T13:36:36.151Z,16.88
2023-01-07T13:39:02.815Z,16.65
2023-01-07T13:41:29.522Z,16.75
2023-01-07T13:43:56.374Z,16.68
2023-01-07T13:46:23.283Z,16.71
2023-01-07T13:48:50.026Z,16.67
2023-01-07T13:51:16.723Z,16.58
2023-01-07T13:53:43.389Z,16.60
2023-01-07T13:56:10.107Z,16.58
2023-01-07T13:58:37.069Z,16.52
2023-01-07T14:01:03.902Z,16.43
2023-01-07T14:03:30.607Z,16.29
2023-01-07T14:05:57.338Z,16.17
2023-01-07T14:08:23.988Z,16.12
2023-01-07T14:10:50.663Z,16.12
2023-01-07T14:13:17.333Z,16.05
2023-01-07T14:15:44.076Z,15.95
2023-01-07T14:18:10.789Z,15.87
2023-01-07T14:20:37.467Z,15.83
2023-01-07T14:23:04.213Z,15.72
2023-01-07T14:25:30.884Z,15.66
2023-01-07T14:27:57.559Z,15.56
2023-01-07T14:30:24.204Z,15.47
2023-01-07T14:32:50.861Z,15.37
2023-01-07T14:35:17.522Z,15.31
2023-01-07T14:37:44.157Z,15.23
2023-01-07T14:40:10.809Z,15.20
2023-01-07T14:42:37.535Z,14.93
2023-01-07T14:45:04.229Z,14.99
2023-01-07T14:47:30.951Z,14.88
2023-01-07T14:49:57.699Z,14.83
2023-01-07T14:52:24.403Z,14.79
2023-01-07T14:54:51.188Z,14.73
2023-01-07T14:57:17.893Z,14.47
2023-01-07T14:59:44.593Z,14.36
2023-01-07T15:02:11.311Z,14.30
2023-01-07T15:04:38.036Z,14.30
2023-01-07T15:07:04.736Z,13.98
2023-01-07T15:09:31.511Z,13.87
2023-01-07T15:11:58.228Z,13.89
2023-01-07T15:14:24.918Z,13.86
2023-01-07T15:16:51.582Z,13.81
2023-01-07T15:19:18.273Z,13.68
2023-01-07T15:21:44.947Z,13.66
2023-01-07T15:24:11.679Z,13.56
2023-01-07T15:26:38.384Z,13.44
2023-01-07T15:29:05.062Z,13.39
2023-01-07T15:31:31.720Z,13.32
2023-01-07T15:33:58.484Z,13.24
2023-01-07T15:36:25.159Z,13.20
2023-01-07T15:38:51.841Z,13.10
2023-01-07T15:41:18.482Z,12.91
2023-01-07T15:43:45.152Z,12.92
2023-01-07T15:46:11.860Z,12.83
2023-01-07T15:48:38.833Z,12.81
2023-01-07T15:51:05.520Z,12.75
2023-01-07T15:53:32.333Z,12.83
2023-01-07T15:55:59.340Z,12.74
2023-01-07T15:58:26.070Z,12.61
2023-01-07T16:00:52.760Z,12.49
2023-01-07T16:03:19.433Z,12.40
2023-01-07T16:05:46.174Z,12.28
2023-01-07T16:08:12.793Z,12.09
2023-01-07T16:10:39.439Z,12.12
2023-01-07T16:13:06.082Z,12.00
2023-01-07T16:15:32.886Z,11.89
2023-01-07T16:17:59.521Z,11.83
2023-01-07T16:20:28.059Z,11.72
2023-01-07T16:22:55.899Z,11.71
2023-01-07T16:25:22.603Z,11.65
2023-01-07T16:27:49.437Z,11.65
2023-01-07T16:30:16.121Z,11.45
2023-01-07T16:32:42.894Z,11.37
2023-01-07T16:35:09.581Z,11.39
2023-01-07T16:37:37.735Z,11.29
2023-01-07T16:40:04.589Z,11.13
2023-01-07T16:42:31.347Z,11.18
2023-01-07T16:44:57.984Z,11.08
2023-01-07T16:47:24.673Z,11.10
2023-01-07T16:49:51.572Z,11.13
2023-01-07T16:52:18.189Z,11.02
2023-01-07T16:54:44.885Z,10.90
2023-01-07T16:57:11.522Z,10.91
2023-01-07T16:59:38.249Z,10.85
2023-01-07T17:02:04.894Z,10.86
2023-01-07T17:04:31.543Z,10.78
2023-01-07T17:06:58.757Z,10.77
2023-01-07T17:09:25.567Z,10.74
2023-01-07T17:11:52.515Z,10.57
2023-01-07T17:14:19.164Z,10.50
2023-01-07T17:16:45.862Z,10.47
2023-01-07T17:19:12.630Z,10.16
2023-01-07T17:21:39.259Z,10.31
2023-01-07T17:24:05.957Z,10.22
2023-01-07T17:26:40.777Z,10.12
2023-01-07T17:29:07.865Z,10.11
2023-01-07T17:31:34.510Z,10.04
2023-01-07T17:34:01.225Z,10.09
2023-01-07T17:36:28.491Z,9.97
2023-01-07T17:38:55.124Z,9.88
2023-01-07T17:41:21.778Z,9.92
2023-01-07T17:43:48.567Z,9.51
2023-01-07T17:46:15.307Z,9.56
2023-01-07T17:48:42.028Z,9.63
2023-01-07T17:51:08.748Z,9.57
2023-01-07T17:53:35.413Z,9.60
2023-01-07T17:56:02.298Z,9.54
2023-01-07T17:58:28.989Z,9.45
2023-01-07T18:00:55.744Z,9.40
2023-01-07T18:03:22.488Z,9.36
2023-01-07T18:05:49.117Z,9.11
2023-01-07T18:08:15.818Z,9.27
2023-01-07T18:10:42.526Z,9.37
2023-01-07T18:13:09.336Z,9.40
2023-01-07T18:15:36.007Z,9.36
2023-01-07T18:18:02.646Z,9.37
2023-01-07T18:20:29.325Z,9.32
2023-01-07T18:22:55.968Z,9.23
2023-01-07T18:25:22.687Z,9.25
2023-01-07T18:27:49.534Z,9.17
2023-01-07T18:30:16.230Z,8.98
2023-01-07T18:32:43.187Z,8.96
2023-01-07T18:35:09.976Z,9.11
2023-01-07T18:37:36.777Z,9.04
2023-01-07T18:40:03.688Z,8.95
2023-01-07T18:42:30.408Z,8.90
2023-01-07T18:44:57.094Z,8.96
2023-01-07T18:47:23.719Z,8.87
2023-01-07T18:49:50.431Z,8.70
2023-01-07T18:52:17.239Z,8.50
2023-01-07T18:54:44.170Z,8.63
2023-01-07T18:57:10.914Z,8.68
2023-01-07T18:59:37.728Z,8.24
2023-01-07T19:02:04.948Z,8.31
2023-01-07T19:04:31.620Z,8.28
2023-01-07T19:06:58.342Z,8.21
2023-01-07T19:09:25.065Z,8.27
2023-01-07T19:11:51.692Z,7.92
2023-01-07T19:14:18.437Z,8.08
2023-01-07T19:16:45.317Z,8.22
2023-01-07T19:19:11.993Z,7.92
2023-01-07T19:21:38.791Z,8.10
2023-01-07T19:24:05.610Z,8.20
2023-01-07T19:26:32.477Z,8.11
2023-01-07T19:28:59.142Z,8.12
2023-01-07T19:31:25.787Z,8.05
2023-01-07T19:33:52.587Z,8.13
2023-01-07T19:36:19.292Z,7.94
2023-01-07T19:38:45.993Z,8.00
2023-01-07T19:41:12.685Z,7.77
2023-01-07T19:43:39.368Z,7.76
2023-01-07T19:46:08.278Z,7.65
2023-01-07T19:48:35.018Z,7.65
2023-01-07T19:51:01.644Z,7.69
2023-01-07T19:53:28.643Z,7.71
2023-01-07T19:55:55.336Z,7.77
2023-01-07T19:58:22.058Z,7.74
2023-01-07T20:00:48.772Z,7.80
2023-01-07T20:03:15.418Z,7.79
2023-01-07T20:05:42.047Z,7.68
2023-01-07T20:08:08.704Z,7.70
2023-01-07T20:10:35.344Z,7.69
2023-01-07T20:13:02.047Z,7.69
2023-01-07T20:15:28.851Z,7.50
2023-01-07T20:17:55.546Z,7.39
2023-01-07T20:20:22.211Z,7.49
2023-01-07T20:22:48.882Z,7.54
2023-01-07T20:25:15.585Z,7.44
2023-01-07T20:27:42.375Z,7.50
2023-01-07T20:30:09.025Z,7.51
2023-01-07T20:32:35.742Z,7.39
2023-01-07T20:35:02.488Z,7.45
2023-01-07T20:37:29.217Z,7.44
2023-01-07T20:39:56.034Z,7.54
2023-01-07T20:42:22.736Z,7.39
2023-01-07T20:44:49.412Z,7.32
2023-01-07T20:47:16.108Z,7.26
2023-01-07T20:49:43.107Z,7.18
2023-01-07T20:52:09.793Z,6.93
2023-01-07T20:54:36.792Z,7.05
2023-01-07T20:57:03.477Z,6.74
2023-01-07T20:59:30.184Z,6.76
2023-01-07T21:01:57.514Z,6.58
2023-01-07T21:04:24.330Z,6.15
2023-01-07T21:06:51.127Z,6.35
2023-01-07T21:09:18.001Z,6.63
2023-01-07T21:11:44.709Z,6.49
2023-01-07T21:14:11.391Z,6.66
2023-01-07T21:16:38.186Z,6.73
2023-01-07T21:19:04.982Z,6.65
2023-01-07T21:21:31.745Z,6.64
2023-01-07T21:23:58.400Z,6.56
2023-01-07T21:26:25.210Z,6.43
2023-01-07T21:28:51.894Z,5.88
2023-01-07T21:31:18.891Z,6.08
2023-01-07T21:33:45.617Z,6.01
2023-01-07T21:36:12.290Z,5.94
2023-01-07T21:38:38.986Z,6.29
2023-01-07T21:41:05.687Z,5.92
2023-01-07T21:43:33.821Z,6.21
2023-01-07T21:46:00.662Z,6.31
2023-01-07T21:48:27.375Z,6.10
2023-01-07T21:50:54.049Z,6.39
2023-01-07T21:53:20.916Z,6.23
2023-01-07T21:55:47.585Z,6.33
2023-01-07T21:58:14.299Z,5.90
2023-01-07T22:00:41.134Z,5.95
2023-01-07T22:03:07.783Z,6.08
2023-01-07T22:05:34.431Z,6.21
2023-01-07T22:08:01.233Z,6.43
2023-01-07T22:10:27.912Z,6.42
2023-01-07T22:12:54.651Z,6.43
2023-01-07T22:15:21.320Z,6.21
2023-01-07T22:17:47.992Z,6.13
2023-01-07T22:20:14.655Z,6.16
2023-01-07T22:22:41.504Z,6.32
2023-01-07T22:25:08.158Z,6.42
2023-01-07T22:27:34.841Z,6.45
2023-01-07T22:30:01.507Z,6.08
2023-01-07T22:32:28.161Z,6.21
2023-01-07T22:34:54.826Z,6.01
2023-01-07T22:37:21.600Z,6.08
2023-01-07T22:39:48.265Z,5.86
2023-01-07T22:42:14.991Z,5.92
2023-01-07T22:44:41.656Z,6.10
2023-01-07T22:47:08.359Z,6.05
2023-01-07T22:49:35.176Z,5.83
2023-01-07T22:52:01.885Z,5.82
2023-01-07T22:54:28.767Z,5.79
2023-01-07T22:56:55.439Z,5.90
2023-01-07T22:59:22.107Z,5.79
2023-01-07T23:01:48.780Z,5.89
2023-01-07T23:04:15.509Z,5.75
2023-01-07T23:06:42.378Z,5.46
2023-01-07T23:09:09.063Z,5.55
2023-01-07T23:11:35.838Z,5.62
2023-01-07T23:14:02.528Z,5.65
2023-01-07T23:16:29.346Z,5.83
2023-01-07T23:18:56.049Z,5.93
2023-01-07T23:21:22.743Z,5.67
2023-01-07T23:23:49.438Z,5.60
2023-01-07T23:26:16.149Z,5.62
2023-01-07T23:28:42.825Z,5.78
2023-01-07T23:31:09.663Z,5.65
2023-01-07T23:33:36.346Z,5.51
2023-01-07T23:36:03.006Z,5.36
2023-01-07T23:38:29.714Z,4.98
2023-01-07T23:40:56.391Z,5.32
2023-01-07T23:43:23.052Z,5.38
2023-01-07T23:45:49.890Z,5.33
2023-01-07T23:48:16.597Z,5.36
2023-01-07T23:50:43.247Z,5.24
2023-01-07T23:53:09.881Z,5.34
2023-01-07T23:55:36.521Z,5.28
2023-01-07T23:58:03.205Z,5.27
